Time;durP1;ratioP1;P1;durP2;ratioP2;P2;SDS_P1;SDS_P2;PMS_P1;PMS_P2;Temp;Humidity;BMP_temperature;BMP_pressure;BME280_temperature;BME280_humidity;BME280_pressure;Samples;Min_cycle;Max_cycle;Signal;HPM_P1;HPM_P2
2021/01/17 00:00:32;;;;;;;14.93;7.42;;;;;;;;;;1725974;82;21155;-79
2021/01/17 00:02:59;;;;;;;11.80;7.12;;;;;;;;;;1696898;84;21206;-79
2021/01/17 00:05:25;;;;;;;20.05;8.10;;;;;;;;;;1696908;84;21155;-78
2021/01/17 00:07:52;;;;;;;24.30;9.18;;;;;;;;;;1684970;84;21141;-79
2021/01/17 00:10:20;;;;;;;20.70;9.73;;;;;;;;;;1713978;83;21152;-78
2021/01/17 00:12:46;;;;;;;15.88;6.85;;;;;;;;;;1714062;84;21287;-78
2021/01/17 00:15:13;;;;;;;26.48;9.00;;;;;;;;;;1713950;84;21597;-79
2021/01/17 00:17:39;;;;;;;26.40;11.50;;;;;;;;;;1713966;84;21583;-79
2021/01/17 00:20:11;;;;;;;23.50;8.75;;;;;;;;;;1754321;82;21153;-79
2021/01/17 00:22:38;;;;;;;23.02;9.28;;;;;;;;;;1751178;82;21134;-78
2021/01/17 00:25:04;;;;;;;21.00;9.45;;;;;;;;;;1750693;82;21533;-78
2021/01/17 00:27:31;;;;;;;23.52;10.60;;;;;;;;;;1704776;84;21173;-78
2021/01/17 00:29:57;;;;;;;20.12;8.20;;;;;;;;;;1704946;84;21145;-78
2021/01/17 00:32:23;;;;;;;16.37;7.58;;;;;;;;;;1704870;83;21152;-78
2021/01/17 00:34:49;;;;;;;12.18;5.53;;;;;;;;;;1704631;84;21170;-78
2021/01/17 00:37:15;;;;;;;23.73;9.88;;;;;;;;;;1649196;87;21199;-79
2021/01/17 00:39:42;;;;;;;25.68;10.60;;;;;;;;;;1713020;82;21138;-79
2021/01/17 00:42:10;;;;;;;22.70;9.03;;;;;;;;;;1740198;82;21553;-79
2021/01/17 00:44:36;;;;;;;26.95;9.80;;;;;;;;;;1704351;84;21564;-78
2021/01/17 00:47:02;;;;;;;21.82;9.50;;;;;;;;;;1704991;84;21164;-78
2021/01/17 00:49:29;;;;;;;10.90;6.20;;;;;;;;;;1704867;84;21152;-78
2021/01/17 00:51:55;;;;;;;25.60;9.85;;;;;;;;;;1698589;84;21148;-79
2021/01/17 00:54:21;;;;;;;18.23;7.65;;;;;;;;;;1702921;84;21556;-80
2021/01/17 00:56:47;;;;;;;20.30;8.98;;;;;;;;;;1704910;84;21150;-78
2021/01/17 00:59:13;;;;;;;21.82;10.20;;;;;;;;;;1704786;84;21149;-78
2021/01/17 01:01:40;;;;;;;14.55;6.28;;;;;;;;;;1704683;83;21194;-79
2021/01/17 01:04:06;;;;;;;19.90;8.15;;;;;;;;;;1704856;84;21161;-79
2021/01/17 01:06:32;;;;;;;15.78;8.43;;;;;;;;;;1704740;84;21180;-79
2021/01/17 01:09:01;;;;;;;19.27;7.87;;;;;;;;;;1704966;84;21148;-78
2021/01/17 01:11:27;;;;;;;12.18;6.53;;;;;;;;;;1704817;84;21168;-79
2021/01/17 01:13:53;;;;;;;23.10;9.38;;;;;;;;;;1675535;84;21167;-79
2021/01/17 01:16:19;;;;;;;25.65;8.88;;;;;;;;;;1695777;85;21588;-78
2021/01/17 01:18:45;;;;;;;22.30;8.88;;;;;;;;;;1695681;85;21132;-78
2021/01/17 01:21:12;;;;;;;23.40;9.78;;;;;;;;;;1695756;83;21140;-79
2021/01/17 01:23:38;;;;;;;19.77;8.83;;;;;;;;;;1695860;85;21559;-79
2021/01/17 01:26:04;;;;;;;25.77;9.90;;;;;;;;;;1695829;85;21152;-79
2021/01/17 01:28:30;;;;;;;13.38;6.42;;;;;;;;;;1695829;83;21125;-78
2021/01/17 01:30:56;;;;;;;16.25;6.87;;;;;;;;;;1695894;85;21140;-80
2021/01/17 01:33:22;;;;;;;22.05;9.93;;;;;;;;;;1695756;85;21139;-78
2021/01/17 01:35:48;;;;;;;23.57;9.83;;;;;;;;;;1695885;84;21144;-78
2021/01/17 01:38:15;;;;;;;17.55;8.28;;;;;;;;;;1695815;85;21129;-77
2021/01/17 01:40:43;;;;;;;23.18;8.73;;;;;;;;;;1695887;85;21160;-77
2021/01/17 01:43:09;;;;;;;19.50;7.97;;;;;;;;;;1730740;82;21114;-79
2021/01/17 01:45:35;;;;;;;16.40;7.67;;;;;;;;;;1705193;84;21120;-79
2021/01/17 01:48:05;;;;;;;20.00;7.95;;;;;;;;;;1705020;84;21560;-80
2021/01/17 01:50:29;;;;;;;21.55;8.80;;;;;;;;;;1704668;84;21152;-79
2021/01/17 01:52:55;;;;;;;16.32;7.37;;;;;;;;;;1703056;84;21144;-80
2021/01/17 01:55:21;;;;;;;18.98;7.53;;;;;;;;;;1705014;84;21548;-79
2021/01/17 01:57:47;;;;;;;15.40;7.90;;;;;;;;;;1704879;84;21148;-80
2021/01/17 02:00:14;;;;;;;27.22;9.83;;;;;;;;;;1692435;84;21143;-78
2021/01/17 02:02:41;;;;;;;20.55;8.95;;;;;;;;;;1710692;84;21141;-78
2021/01/17 02:05:08;;;;;;;25.48;10.08;;;;;;;;;;1735487;82;21126;-79
2021/01/17 02:07:42;;;;;;;25.02;9.00;;;;;;;;;;1726484;82;21166;-79
2021/01/17 02:10:08;;;;;;;19.90;8.57;;;;;;;;;;1663205;86;21540;-78
2021/01/17 02:12:36;;;;;;;17.95;8.43;;;;;;;;;;1731928;82;21141;-76
2021/01/17 02:15:03;;;;;;;18.77;8.65;;;;;;;;;;1732118;82;21146;-76
2021/01/17 02:17:29;;;;;;;20.97;9.40;;;;;;;;;;1740228;82;21688;-79
2021/01/17 02:20:03;;;;;;;26.55;9.10;;;;;;;;;;1740301;82;21157;-79
2021/01/17 02:22:30;;;;;;;20.37;8.58;;;;;;;;;;1740212;81;21164;-77
2021/01/17 02:24:57;;;;;;;21.77;9.18;;;;;;;;;;1705091;84;21172;-77
2021/01/17 02:27:23;;;;;;;19.67;8.83;;;;;;;;;;1705006;84;21140;-78
2021/01/17 02:29:50;;;;;;;18.85;8.45;;;;;;;;;;1704901;84;21607;-78
2021/01/17 02:32:16;;;;;;;21.70;9.58;;;;;;;;;;1705023;83;21153;-79
2021/01/17 02:34:42;;;;;;;20.65;8.73;;;;;;;;;;1704894;84;21163;-77
2021/01/17 02:37:10;;;;;;;17.30;6.75;;;;;;;;;;1705091;84;21189;-77
2021/01/17 02:39:47;;;;;;;14.03;6.92;;;;;;;;;;1702767;84;21152;-78
2021/01/17 02:42:13;;;;;;;24.45;8.90;;;;;;;;;;1699151;84;21164;-77
2021/01/17 02:44:39;;;;;;;21.27;9.40;;;;;;;;;;1690776;84;21185;-77
2021/01/17 02:47:05;;;;;;;16.55;8.05;;;;;;;;;;1710825;84;21601;-79
2021/01/17 02:49:32;;;;;;;19.80;7.95;;;;;;;;;;1710805;83;21109;-78
2021/01/17 02:51:58;;;;;;;22.67;9.63;;;;;;;;;;1710731;83;21541;-79
2021/01/17 02:54:26;;;;;;;18.12;7.97;;;;;;;;;;1714076;82;21128;-78
2021/01/17 02:56:54;;;;;;;20.68;9.90;;;;;;;;;;1702996;84;21120;-78
2021/01/17 02:59:20;;;;;;;17.48;7.65;;;;;;;;;;1704480;84;21611;-79
2021/01/17 03:01:47;;;;;;;25.35;9.98;;;;;;;;;;1704984;83;21185;-78
2021/01/17 03:04:15;;;;;;;20.17;8.80;;;;;;;;;;1705054;84;21153;-79
2021/01/17 03:06:42;;;;;;;22.17;10.08;;;;;;;;;;1679937;84;21135;-79
2021/01/17 03:09:08;;;;;;;21.97;8.98;;;;;;;;;;1643721;86;21165;-79
2021/01/17 03:11:34;;;;;;;18.62;9.23;;;;;;;;;;1712618;82;21133;-80
2021/01/17 03:14:00;;;;;;;26.93;11.50;;;;;;;;;;1710976;84;21176;-80
2021/01/17 03:16:27;;;;;;;16.97;9.18;;;;;;;;;;1710767;84;21613;-80
2021/01/17 03:18:53;;;;;;;19.73;9.05;;;;;;;;;;1710815;83;21157;-82
2021/01/17 03:21:19;;;;;;;25.25;9.70;;;;;;;;;;1662976;86;21691;-81
2021/01/17 03:23:45;;;;;;;19.37;9.50;;;;;;;;;;1710741;83;21169;-81
2021/01/17 03:26:11;;;;;;;22.15;8.35;;;;;;;;;;1710662;84;21173;-80
2021/01/17 03:28:37;;;;;;;25.55;9.95;;;;;;;;;;1710744;84;21554;-80
2021/01/17 03:31:04;;;;;;;27.00;9.30;;;;;;;;;;1710801;84;21137;-80
2021/01/17 03:33:30;;;;;;;20.35;9.48;;;;;;;;;;1710666;84;21553;-80
2021/01/17 03:35:56;;;;;;;21.42;7.15;;;;;;;;;;1710681;84;21098;-79
2021/01/17 03:38:22;;;;;;;19.60;7.60;;;;;;;;;;1710637;84;21170;-79
2021/01/17 03:40:48;;;;;;;22.15;10.20;;;;;;;;;;1710845;84;21130;-77
2021/01/17 03:43:14;;;;;;;18.80;8.40;;;;;;;;;;1732149;82;21094;-78
2021/01/17 03:45:40;;;;;;;23.27;9.90;;;;;;;;;;1704934;84;21152;-78
2021/01/17 03:48:07;;;;;;;21.70;8.80;;;;;;;;;;1704950;84;21166;-77
2021/01/17 03:50:33;;;;;;;22.02;10.10;;;;;;;;;;1692355;84;21172;-78
2021/01/17 03:52:59;;;;;;;21.90;9.05;;;;;;;;;;1724451;82;21146;-79
2021/01/17 03:55:25;;;;;;;18.05;8.55;;;;;;;;;;1704950;84;21568;-76
2021/01/17 03:57:51;;;;;;;24.00;9.18;;;;;;;;;;1704882;84;21561;-77
2021/01/17 04:00:18;;;;;;;16.42;6.85;;;;;;;;;;1704549;84;21136;-77
2021/01/17 04:02:44;;;;;;;21.00;7.55;;;;;;;;;;1703189;84;21159;-77
2021/01/17 04:05:10;;;;;;;20.88;9.30;;;;;;;;;;1687106;84;21172;-77
2021/01/17 04:07:36;;;;;;;15.20;6.85;;;;;;;;;;1702797;84;21101;-77
2021/01/17 04:10:03;;;;;;;17.15;7.47;;;;;;;;;;1704832;84;21137;-76
2021/01/17 04:12:29;;;;;;;23.67;9.05;;;;;;;;;;1704828;84;21120;-77
2021/01/17 04:14:55;;;;;;;20.02;8.28;;;;;;;;;;1704782;84;21153;-77
2021/01/17 04:17:22;;;;;;;20.90;9.70;;;;;;;;;;1704883;84;21152;-77
2021/01/17 04:19:48;;;;;;;17.73;7.65;;;;;;;;;;1704832;84;21615;-77
2021/01/17 04:22:14;;;;;;;18.42;8.73;;;;;;;;;;1697041;83;21167;-77
2021/01/17 04:24:40;;;;;;;19.92;9.25;;;;;;;;;;1721600;83;21307;-78
2021/01/17 04:27:06;;;;;;;16.10;8.05;;;;;;;;;;1713169;83;21273;-78
2021/01/17 04:29:32;;;;;;;19.87;9.15;;;;;;;;;;1720284;83;21302;-78
2021/01/17 04:31:59;;;;;;;25.27;9.95;;;;;;;;;;1670809;84;21196;-78
2021/01/17 04:34:25;;;;;;;18.60;7.95;;;;;;;;;;1690314;84;21139;-78
2021/01/17 04:36:52;;;;;;;23.10;9.08;;;;;;;;;;1685468;85;21564;-77
2021/01/17 04:39:18;;;;;;;22.35;9.00;;;;;;;;;;1721474;82;21149;-78
2021/01/17 04:41:44;;;;;;;29.18;9.95;;;;;;;;;;1724138;83;21666;-78
2021/01/17 04:44:11;;;;;;;22.15;8.63;;;;;;;;;;1725693;83;21115;-77
2021/01/17 04:46:37;;;;;;;21.77;9.20;;;;;;;;;;1716163;83;21126;-78
2021/01/17 04:49:04;;;;;;;25.25;8.30;;;;;;;;;;1695106;84;21169;-77
2021/01/17 04:51:30;;;;;;;18.12;9.83;;;;;;;;;;1665285;85;21165;-76
2021/01/17 04:53:58;;;;;;;14.47;8.63;;;;;;;;;;1713932;84;21562;-76
2021/01/17 04:56:26;;;;;;;21.27;9.33;;;;;;;;;;1713246;84;21158;-77
2021/01/17 04:59:10;;;;;;;20.70;9.63;;;;;;;;;;1713969;84;21553;-77
2021/01/17 05:01:50;;;;;;;21.12;9.00;;;;;;;;;;1714022;84;21688;-76
2021/01/17 05:04:18;;;;;;;29.23;10.20;;;;;;;;;;1713959;84;21271;-77
2021/01/17 05:06:45;;;;;;;14.43;7.40;;;;;;;;;;1713976;84;21574;-78
2021/01/17 05:09:11;;;;;;;21.80;8.78;;;;;;;;;;1714050;84;21136;-77
2021/01/17 05:11:41;;;;;;;29.52;11.22;;;;;;;;;;1697902;82;21503;-78
2021/01/17 05:14:15;;;;;;;21.10;9.98;;;;;;;;;;1743555;82;21531;-78
2021/01/17 05:16:42;;;;;;;22.82;9.60;;;;;;;;;;1743681;82;21526;-79
2021/01/17 05:19:13;;;;;;;21.35;9.70;;;;;;;;;;1743362;82;21138;-79
2021/01/17 05:21:40;;;;;;;29.45;10.25;;;;;;;;;;1725015;83;21281;-76
2021/01/17 05:24:09;;;;;;;19.77;9.00;;;;;;;;;;1725843;83;21199;-77
2021/01/17 05:26:35;;;;;;;21.95;9.45;;;;;;;;;;1720513;83;21132;-74
2021/01/17 05:29:01;;;;;;;18.82;8.38;;;;;;;;;;1687411;84;21130;-78
2021/01/17 05:31:28;;;;;;;20.43;9.75;;;;;;;;;;1690526;84;21600;-75
2021/01/17 05:33:54;;;;;;;27.40;10.80;;;;;;;;;;1671651;84;21107;-76
2021/01/17 05:36:20;;;;;;;23.65;10.30;;;;;;;;;;1675146;83;21506;-77
2021/01/17 05:38:46;;;;;;;22.02;9.98;;;;;;;;;;1723876;83;21328;-77
2021/01/17 05:41:24;;;;;;;19.70;8.18;;;;;;;;;;1696895;83;21559;-77
2021/01/17 05:43:51;;;;;;;17.52;7.67;;;;;;;;;;1711253;83;21112;-77
2021/01/17 05:46:17;;;;;;;25.32;9.88;;;;;;;;;;1725740;83;21200;-78
2021/01/17 05:48:43;;;;;;;26.87;10.85;;;;;;;;;;1725859;83;21167;-78
2021/01/17 05:51:09;;;;;;;31.90;10.18;;;;;;;;;;1725732;83;21712;-77
2021/01/17 05:53:35;;;;;;;20.30;8.25;;;;;;;;;;1725937;83;21151;-77
2021/01/17 05:56:05;;;;;;;28.10;10.18;;;;;;;;;;1725704;83;21150;-77
2021/01/17 05:58:31;;;;;;;17.00;7.92;;;;;;;;;;1724021;83;21129;-77
2021/01/17 06:01:00;;;;;;;23.65;9.73;;;;;;;;;;1726058;83;21289;-78
2021/01/17 06:03:31;;;;;;;22.10;9.38;;;;;;;;;;1726059;83;21119;-77
2021/01/17 06:05:58;;;;;;;22.52;9.15;;;;;;;;;;1723847;83;21324;-77
2021/01/17 06:08:24;;;;;;;22.00;10.95;;;;;;;;;;1697811;84;21202;-78
2021/01/17 06:10:50;;;;;;;16.65;6.28;;;;;;;;;;1698218;84;21186;-76
2021/01/17 06:13:23;;;;;;;26.68;9.90;;;;;;;;;;1715768;82;21153;-78
2021/01/17 06:15:49;;;;;;;27.22;10.60;;;;;;;;;;1695049;84;21184;-77
2021/01/17 06:18:19;;;;;;;27.40;12.10;;;;;;;;;;1697421;84;21304;-77
2021/01/17 06:20:46;;;;;;;15.45;7.33;;;;;;;;;;1714016;84;21586;-77
2021/01/17 06:23:12;;;;;;;27.52;9.58;;;;;;;;;;1712119;82;21146;-78
2021/01/17 06:25:38;;;;;;;19.00;8.70;;;;;;;;;;1705535;83;21154;-76
2021/01/17 06:28:13;;;;;;;15.28;8.73;;;;;;;;;;1701752;84;21118;-78
2021/01/17 06:30:40;;;;;;;30.45;11.83;;;;;;;;;;1715005;83;21126;-77
2021/01/17 06:33:06;;;;;;;19.02;9.23;;;;;;;;;;1702502;83;21578;-78
2021/01/17 06:35:33;;;;;;;26.75;12.85;;;;;;;;;;1724193;83;21143;-77
2021/01/17 06:38:15;;;;;;;26.45;10.48;;;;;;;;;;1724212;83;21148;-77
2021/01/17 06:40:42;;;;;;;30.50;12.37;;;;;;;;;;1724296;83;21128;-75
2021/01/17 06:43:09;;;;;;;31.05;10.68;;;;;;;;;;1724210;83;21903;-75
2021/01/17 06:45:39;;;;;;;24.50;10.90;;;;;;;;;;1724380;82;21299;-77
2021/01/17 06:48:06;;;;;;;20.75;9.78;;;;;;;;;;1723729;83;21113;-76
2021/01/17 06:50:32;;;;;;;18.92;8.83;;;;;;;;;;1729284;82;21668;-75
2021/01/17 06:52:58;;;;;;;16.77;7.33;;;;;;;;;;1730123;82;21121;-75
2021/01/17 06:55:25;;;;;;;24.00;11.95;;;;;;;;;;1738910;82;21128;-77
2021/01/17 06:57:51;;;;;;;21.05;8.48;;;;;;;;;;1728574;82;21148;-77
2021/01/17 07:00:17;;;;;;;34.15;10.70;;;;;;;;;;1753816;82;21086;-77
2021/01/17 07:02:45;;;;;;;36.60;12.30;;;;;;;;;;1754147;82;21133;-78
2021/01/17 07:05:17;;;;;;;32.70;12.15;;;;;;;;;;1752342;82;21169;-79
2021/01/17 07:07:54;;;;;;;19.32;11.22;;;;;;;;;;1752583;82;21153;-75
2021/01/17 07:10:24;;;;;;;13.30;6.78;;;;;;;;;;1733232;81;21113;-75
2021/01/17 07:13:02;;;;;;;35.85;11.60;;;;;;;;;;1724402;83;21282;-78
2021/01/17 07:15:29;;;;;;;29.23;10.95;;;;;;;;;;1727102;82;21493;-78
2021/01/17 07:18:09;;;;;;;20.65;11.38;;;;;;;;;;1752134;81;21132;-78
2021/01/17 07:20:38;;;;;;;27.20;8.60;;;;;;;;;;1748394;82;21136;-75
2021/01/17 07:23:05;;;;;;;19.80;9.08;;;;;;;;;;1724812;81;21141;-77
2021/01/17 07:25:31;;;;;;;26.48;11.00;;;;;;;;;;1719095;82;21593;-83
2021/01/17 07:28:10;;;;;;;31.97;11.75;;;;;;;;;;1735658;82;21122;-79
2021/01/17 07:30:38;;;;;;;27.58;10.60;;;;;;;;;;1734786;82;21105;-79
2021/01/17 07:33:05;;;;;;;36.30;14.33;;;;;;;;;;1716242;82;21129;-80
2021/01/17 07:35:37;;;;;;;30.80;12.70;;;;;;;;;;1718613;82;21154;-78
2021/01/17 07:38:11;;;;;;;38.28;16.12;;;;;;;;;;1726869;82;21086;-83
2021/01/17 07:40:50;;;;;;;41.97;15.23;;;;;;;;;;1729878;81;21094;-80
2021/01/17 07:43:33;;;;;;;29.00;12.45;;;;;;;;;;1696258;83;21120;-83
2021/01/17 07:45:59;;;;;;;26.50;10.08;;;;;;;;;;1676520;85;21176;-84
2021/01/17 07:48:26;;;;;;;36.03;13.53;;;;;;;;;;1705205;84;21135;-82
2021/01/17 07:50:53;;;;;;;25.30;11.22;;;;;;;;;;1705030;84;21120;-77
2021/01/17 07:53:27;;;;;;;24.02;10.55;;;;;;;;;;1697194;83;21128;-79
2021/01/17 07:55:55;;;;;;;27.95;12.58;;;;;;;;;;1729912;82;21158;-80
2021/01/17 07:58:24;;;;;;;34.08;10.38;;;;;;;;;;1735321;82;21554;-80
2021/01/17 08:00:50;;;;;;;39.20;14.68;;;;;;;;;;1702038;82;21094;-88
2021/01/17 08:03:23;;;;;;;35.68;12.85;;;;;;;;;;1732896;81;21544;-83
2021/01/17 08:05:52;;;;;;;39.65;15.70;;;;;;;;;;1730037;81;21149;-83
2021/01/17 08:08:29;;;;;;;38.02;17.10;;;;;;;;;;1727778;81;21141;-83
2021/01/17 08:10:55;;;;;;;34.05;17.00;;;;;;;;;;1718546;82;21133;-82
2021/01/17 08:13:22;;;;;;;39.10;15.88;;;;;;;;;;1737803;82;21543;-80
2021/01/17 08:15:48;;;;;;;36.95;14.93;;;;;;;;;;1710941;82;21118;-78
2021/01/17 08:18:18;;;;;;;30.85;15.65;;;;;;;;;;1740119;82;21292;-81
2021/01/17 08:20:44;;;;;;;24.72;11.40;;;;;;;;;;1734882;82;21565;-80
2021/01/17 08:23:11;;;;;;;35.10;13.80;;;;;;;;;;1741521;81;21173;-81
2021/01/17 08:25:39;;;;;;;26.62;13.45;;;;;;;;;;1748196;82;21141;-82
2021/01/17 08:28:07;;;;;;;31.42;13.13;;;;;;;;;;1717297;82;21109;-78
2021/01/17 08:30:36;;;;;;;44.55;15.55;;;;;;;;;;1736802;81;21063;-79
2021/01/17 08:33:03;;;;;;;23.98;13.38;;;;;;;;;;1729169;82;21585;-80
2021/01/17 08:35:29;;;;;;;38.20;17.23;;;;;;;;;;1699410;80;21133;-78
2021/01/17 08:37:57;;;;;;;37.95;17.10;;;;;;;;;;1739310;81;21538;-80
2021/01/17 08:40:31;;;;;;;56.53;19.17;;;;;;;;;;1741063;81;21549;-79
2021/01/17 08:43:02;;;;;;;37.03;17.37;;;;;;;;;;1730215;82;21573;-80
2021/01/17 08:45:32;;;;;;;56.95;22.48;;;;;;;;;;1726946;82;21138;-81
2021/01/17 08:48:05;;;;;;;48.70;19.77;;;;;;;;;;1718617;83;21141;-80
2021/01/17 08:50:30;;;;;;;57.15;19.67;;;;;;;;;;1725439;82;21121;-82
2021/01/17 08:53:07;;;;;;;43.05;17.87;;;;;;;;;;1746693;82;21145;-79
2021/01/17 08:55:36;;;;;;;18.70;12.03;;;;;;;;;;1747136;82;21125;-81
2021/01/17 08:58:02;;;;;;;35.50;15.35;;;;;;;;;;1731933;82;21763;-81
2021/01/17 09:00:47;;;;;;;25.57;13.85;;;;;;;;;;1747405;82;21088;-81
2021/01/17 09:03:15;;;;;;;25.70;9.93;;;;;;;;;;1733907;82;21161;-81
2021/01/17 09:05:59;;;;;;;42.35;18.27;;;;;;;;;;1719102;82;21553;-85
2021/01/17 09:08:26;;;;;;;58.65;19.25;;;;;;;;;;1731653;82;21133;-85
2021/01/17 09:10:52;;;;;;;48.80;19.75;;;;;;;;;;1723552;82;21549;-79
2021/01/17 09:13:20;;;;;;;38.28;17.05;;;;;;;;;;1741538;82;21153;-80
2021/01/17 09:16:00;;;;;;;34.43;13.95;;;;;;;;;;1729317;82;21198;-79
2021/01/17 09:18:27;;;;;;;33.13;14.73;;;;;;;;;;1727036;82;21157;-80
2021/01/17 09:20:53;;;;;;;30.62;11.65;;;;;;;;;;1731369;82;21503;-80
2021/01/17 09:23:20;;;;;;;37.50;15.43;;;;;;;;;;1737341;81;21165;-80
2021/01/17 09:25:47;;;;;;;28.12;11.60;;;;;;;;;;1753642;82;21105;-79
2021/01/17 09:28:14;;;;;;;25.43;12.15;;;;;;;;;;1747316;82;21533;-80
2021/01/17 09:30:42;;;;;;;27.40;11.68;;;;;;;;;;1750473;80;21158;-79
2021/01/17 09:33:08;;;;;;;34.73;16.50;;;;;;;;;;1742847;80;21134;-78
2021/01/17 09:35:34;;;;;;;35.68;13.13;;;;;;;;;;1738208;82;21553;-80
2021/01/17 09:38:00;;;;;;;34.83;15.60;;;;;;;;;;1722172;82;21146;-80
2021/01/17 09:40:27;;;;;;;29.50;14.00;;;;;;;;;;1738488;82;21195;-80
2021/01/17 09:42:53;;;;;;;28.35;14.20;;;;;;;;;;1730423;82;21136;-80
2021/01/17 09:45:20;;;;;;;35.38;15.38;;;;;;;;;;1745471;80;21943;-78
2021/01/17 09:47:46;;;;;;;30.70;13.18;;;;;;;;;;1712302;80;21544;-78
2021/01/17 09:50:12;;;;;;;25.35;12.63;;;;;;;;;;1747327;80;21129;-80
2021/01/17 09:52:40;;;;;;;27.48;12.68;;;;;;;;;;1730422;82;21597;-79
2021/01/17 09:55:07;;;;;;;30.45;15.72;;;;;;;;;;1751607;81;21078;-82
2021/01/17 09:57:38;;;;;;;26.52;13.75;;;;;;;;;;1749301;82;21130;-81
2021/01/17 10:00:06;;;;;;;31.87;15.30;;;;;;;;;;1710671;82;21655;-80
2021/01/17 10:02:33;;;;;;;35.33;17.07;;;;;;;;;;1739326;81;21125;-80
2021/01/17 10:04:59;;;;;;;37.73;17.55;;;;;;;;;;1734887;82;21117;-82
2021/01/17 10:07:26;;;;;;;38.58;19.00;;;;;;;;;;1742492;82;21113;-83
2021/01/17 10:09:54;;;;;;;37.48;18.60;;;;;;;;;;1742086;82;21137;-85
2021/01/17 10:12:20;;;;;;;38.65;17.35;;;;;;;;;;1706593;82;21198;-83
2021/01/17 10:14:47;;;;;;;34.38;17.65;;;;;;;;;;1707606;83;21149;-83
2021/01/17 10:17:13;;;;;;;33.33;18.20;;;;;;;;;;1728647;82;21168;-83
2021/01/17 10:19:40;;;;;;;36.60;17.75;;;;;;;;;;1741834;82;21612;-82
2021/01/17 10:22:12;;;;;;;38.73;19.10;;;;;;;;;;1736640;82;21528;-77
2021/01/17 10:24:38;;;;;;;36.60;20.57;;;;;;;;;;1731183;81;21629;-79
2021/01/17 10:27:07;;;;;;;37.48;20.62;;;;;;;;;;1696807;84;21161;-78
2021/01/17 10:29:34;;;;;;;39.25;21.87;;;;;;;;;;1704796;84;21194;-79
2021/01/17 10:32:00;;;;;;;43.90;23.83;;;;;;;;;;1675377;84;21552;-80
2021/01/17 10:34:29;;;;;;;40.05;21.70;;;;;;;;;;1711211;82;21554;-80
2021/01/17 10:36:55;;;;;;;40.52;22.62;;;;;;;;;;1710970;82;21145;-84
2021/01/17 10:39:22;;;;;;;41.45;23.75;;;;;;;;;;1710685;83;21178;-79
2021/01/17 10:41:50;;;;;;;45.92;24.52;;;;;;;;;;1711524;82;21566;-79
2021/01/17 10:44:20;;;;;;;37.45;21.60;;;;;;;;;;1710590;83;21122;-77
2021/01/17 10:46:47;;;;;;;42.75;23.95;;;;;;;;;;1710040;84;21141;-81
2021/01/17 10:49:15;;;;;;;39.98;23.20;;;;;;;;;;1711116;82;21161;-75
2021/01/17 10:51:42;;;;;;;48.48;27.27;;;;;;;;;;1712618;82;21625;-80
2021/01/17 10:54:09;;;;;;;42.90;26.12;;;;;;;;;;1710765;84;21110;-78
2021/01/17 10:56:36;;;;;;;51.37;27.42;;;;;;;;;;1710745;84;21110;-78
2021/01/17 10:59:04;;;;;;;46.00;25.45;;;;;;;;;;1717110;82;21173;-82
2021/01/17 11:01:30;;;;;;;43.78;25.75;;;;;;;;;;1720523;82;21192;-78
2021/01/17 11:03:56;;;;;;;39.40;23.38;;;;;;;;;;1720394;82;21110;-77
2021/01/17 11:06:23;;;;;;;39.10;22.62;;;;;;;;;;1735360;82;21711;-79
2021/01/17 11:08:58;;;;;;;40.05;23.65;;;;;;;;;;1715047;82;21178;-82
2021/01/17 11:11:29;;;;;;;43.63;23.92;;;;;;;;;;1734268;82;21130;-81
2021/01/17 11:13:59;;;;;;;36.77;22.13;;;;;;;;;;1732313;82;21553;-80
2021/01/17 11:16:33;;;;;;;34.88;22.37;;;;;;;;;;1738120;82;21101;-79
2021/01/17 11:18:59;;;;;;;39.80;22.90;;;;;;;;;;1705598;82;21153;-85
2021/01/17 11:21:25;;;;;;;37.50;22.17;;;;;;;;;;1725328;82;21193;-81
2021/01/17 11:23:53;;;;;;;32.28;20.17;;;;;;;;;;1725341;82;21509;-84
2021/01/17 11:26:22;;;;;;;36.93;22.32;;;;;;;;;;1741115;82;21109;-81
2021/01/17 11:28:52;;;;;;;41.35;24.32;;;;;;;;;;1738555;82;21158;-82
2021/01/17 11:31:18;;;;;;;39.50;23.87;;;;;;;;;;1698734;84;21516;-82
2021/01/17 11:33:44;;;;;;;43.83;26.30;;;;;;;;;;1738224;82;21090;-80
2021/01/17 11:36:11;;;;;;;44.40;27.30;;;;;;;;;;1739021;81;21489;-82
2021/01/17 11:38:59;;;;;;;43.17;26.23;;;;;;;;;;1736136;81;21137;-79
2021/01/17 11:41:24;;;;;;;44.13;26.52;;;;;;;;;;1736363;82;21093;-84
2021/01/17 11:43:50;;;;;;;40.98;25.17;;;;;;;;;;1739396;82;21549;-82
2021/01/17 11:46:16;;;;;;;31.33;19.05;;;;;;;;;;1737821;82;21184;-84
2021/01/17 11:48:43;;;;;;;31.85;20.40;;;;;;;;;;1703498;84;21586;-84
2021/01/17 11:51:09;;;;;;;38.60;23.42;;;;;;;;;;1742317;82;21617;-85
2021/01/17 11:53:35;;;;;;;40.60;23.47;;;;;;;;;;1740411;82;21141;-81
2021/01/17 11:56:02;;;;;;;38.58;24.02;;;;;;;;;;1736795;81;21124;-81
2021/01/17 11:58:28;;;;;;;40.60;23.60;;;;;;;;;;1747353;80;21174;-81
2021/01/17 12:01:00;;;;;;;35.98;22.45;;;;;;;;;;1716122;82;21256;-85
2021/01/17 12:03:27;;;;;;;33.38;22.02;;;;;;;;;;1728354;82;21138;-82
2021/01/17 12:06:04;;;;;;;35.95;23.27;;;;;;;;;;1740911;82;21105;-83
2021/01/17 12:08:51;;;;;;;33.30;19.45;;;;;;;;;;1737602;82;21133;-83
2021/01/17 12:11:34;;;;;;;34.25;20.85;;;;;;;;;;1739567;81;21121;-83
2021/01/17 12:14:01;;;;;;;28.57;18.77;;;;;;;;;;1735382;82;21517;-82
2021/01/17 12:16:28;;;;;;;32.03;20.08;;;;;;;;;;1706520;82;21120;-85
2021/01/17 12:18:54;;;;;;;31.65;17.80;;;;;;;;;;1738971;82;21125;-83
2021/01/17 12:21:26;;;;;;;32.55;19.32;;;;;;;;;;1738629;82;21202;-80
2021/01/17 12:23:50;;;;;;;34.45;20.48;;;;;;;;;;1699231;84;21112;-82
2021/01/17 12:26:17;;;;;;;35.20;20.45;;;;;;;;;;1724283;82;21522;-81
2021/01/17 12:28:43;;;;;;;35.65;20.88;;;;;;;;;;1700376;84;21144;-83
2021/01/17 12:31:10;;;;;;;40.78;22.37;;;;;;;;;;1702684;84;21152;-83
2021/01/17 12:33:36;;;;;;;38.20;21.80;;;;;;;;;;1704880;83;21533;-86
2021/01/17 12:36:04;;;;;;;39.95;21.55;;;;;;;;;;1704955;84;21140;-86
2021/01/17 12:38:31;;;;;;;36.20;17.73;;;;;;;;;;1664784;86;21164;-85
2021/01/17 12:40:57;;;;;;;39.90;22.10;;;;;;;;;;1734492;82;21564;-82
2021/01/17 12:43:27;;;;;;;34.90;17.12;;;;;;;;;;1710708;84;21150;-81
2021/01/17 12:45:56;;;;;;;39.13;19.05;;;;;;;;;;1710857;83;21141;-86
2021/01/17 12:48:22;;;;;;;39.27;18.55;;;;;;;;;;1710864;83;21149;-85
2021/01/17 12:50:48;;;;;;;18.23;7.95;;;;;;;;;;1690781;84;21153;-86
2021/01/17 12:53:19;;;;;;;34.88;15.85;;;;;;;;;;1714197;82;21113;-86
2021/01/17 12:55:46;;;;;;;31.48;14.30;;;;;;;;;;1724605;82;21130;-86
2021/01/17 12:58:12;;;;;;;34.27;15.38;;;;;;;;;;1720219;82;21566;-86
2021/01/17 13:00:39;;;;;;;28.55;12.18;;;;;;;;;;1739429;82;21122;-82
2021/01/17 13:03:05;;;;;;;35.70;15.60;;;;;;;;;;1740454;82;21149;-85
2021/01/17 13:05:31;;;;;;;30.90;15.05;;;;;;;;;;1740184;82;21150;-81
2021/01/17 13:07:57;;;;;;;37.85;17.55;;;;;;;;;;1731773;82;21279;-87
2021/01/17 13:10:24;;;;;;;35.65;16.42;;;;;;;;;;1712586;82;21121;-85
2021/01/17 13:12:50;;;;;;;29.60;14.78;;;;;;;;;;1718168;82;21133;-85
2021/01/17 13:15:20;;;;;;;34.27;16.30;;;;;;;;;;1740499;82;21141;-87
2021/01/17 13:17:46;;;;;;;27.82;12.82;;;;;;;;;;1716347;82;21140;-81
2021/01/17 13:20:12;;;;;;;33.08;14.40;;;;;;;;;;1712992;82;21151;-87
2021/01/17 13:25:09;;;;;;;32.53;14.68;;;;;;;;;;1811228;79;22660;-82
2021/01/17 13:27:36;;;;;;;32.78;14.38;;;;;;;;;;1796016;80;21139;-86
2021/01/17 13:30:04;;;;;;;15.10;6.17;;;;;;;;;;1806167;78;21557;-81
2021/01/17 13:32:32;;;;;;;33.20;14.07;;;;;;;;;;1806997;78;21262;-83
2021/01/17 13:34:59;;;;;;;29.75;10.65;;;;;;;;;;1820760;78;21552;-83
2021/01/17 13:37:28;;;;;;;39.15;15.83;;;;;;;;;;1824622;78;21113;-87
2021/01/17 13:39:54;;;;;;;37.55;17.00;;;;;;;;;;1798837;78;21175;-83
2021/01/17 13:42:21;;;;;;;39.27;15.78;;;;;;;;;;1785901;78;21179;-87
2021/01/17 13:44:47;;;;;;;37.40;17.67;;;;;;;;;;1813166;78;21093;-85
2021/01/17 13:47:15;;;;;;;33.65;14.43;;;;;;;;;;1806900;78;21243;-82
2021/01/17 13:49:41;;;;;;;39.48;17.67;;;;;;;;;;1801864;78;21121;-86
2021/01/17 13:52:08;;;;;;;40.55;16.07;;;;;;;;;;1811063;78;21122;-81
2021/01/17 13:54:35;;;;;;;33.53;14.98;;;;;;;;;;1795436;80;21131;-83
2021/01/17 13:57:01;;;;;;;36.23;17.20;;;;;;;;;;1794676;80;21536;-87
2021/01/17 13:59:27;;;;;;;35.88;15.68;;;;;;;;;;1804251;78;21599;-87
2021/01/17 14:01:56;;;;;;;37.13;15.23;;;;;;;;;;1800927;78;21643;-85
2021/01/17 14:04:22;;;;;;;44.33;18.65;;;;;;;;;;1811388;78;21120;-86
2021/01/17 14:06:48;;;;;;;39.25;17.17;;;;;;;;;;1802942;78;21137;-83
2021/01/17 14:09:16;;;;;;;35.55;18.00;;;;;;;;;;1808881;78;21509;-83
2021/01/17 14:11:53;;;;;;;34.67;14.83;;;;;;;;;;1793019;78;21124;-87
2021/01/17 14:14:20;;;;;;;42.58;17.35;;;;;;;;;;1795703;78;21104;-87
2021/01/17 14:16:46;;;;;;;43.38;17.02;;;;;;;;;;1808886;78;21153;-83
2021/01/17 14:19:12;;;;;;;33.98;15.23;;;;;;;;;;1802820;78;21588;-86
2021/01/17 14:21:43;;;;;;;41.53;18.92;;;;;;;;;;1812453;78;21073;-85
2021/01/17 14:24:09;;;;;;;41.68;17.45;;;;;;;;;;1816174;78;21166;-86
2021/01/17 14:26:36;;;;;;;39.35;17.35;;;;;;;;;;1819656;79;21256;-82
2021/01/17 14:29:03;;;;;;;46.90;17.30;;;;;;;;;;1809928;78;21121;-83